Time;durP1;ratioP1;P1;durP2;ratioP2;P2;SDS_P1;SDS_P2;PMS_P1;PMS_P2;Temp;Humidity;BMP_temperature;BMP_pressure;BME280_temperature;BME280_humidity;BME280_pressure;Samples;Min_cycle;Max_cycle;Signal;HPM_P1;HPM_P2
2022/09/23 00:01:01;;;;;;;7.22;4.47;;;16.70;54.30;;;;;;5070652;28;20044;-77
2022/09/23 00:03:31;;;;;;;11.98;5.57;;;16.40;55.00;;;;;;5054690;28;20163;-78
2022/09/23 00:05:59;;;;;;;7.45;5.05;;;15.70;57.00;;;;;;5053841;28;20028;-75
2022/09/23 00:08:25;;;;;;;9.25;6.07;;;15.50;56.80;;;;;;5071414;28;20115;-76
2022/09/23 00:10:50;;;;;;;7.18;4.70;;;15.50;57.30;;;;;;5071594;28;20100;-75
2022/09/23 00:13:16;;;;;;;7.45;4.57;;;15.80;56.40;;;;;;5054201;28;20467;-80
2022/09/23 00:15:42;;;;;;;8.52;5.30;;;15.90;56.60;;;;;;5040491;28;20025;-76
2022/09/23 00:18:08;;;;;;;7.38;4.72;;;16.20;56.00;;;;;;5049403;28;20029;-77
2022/09/23 00:20:35;;;;;;;8.55;5.15;;;16.40;55.50;;;;;;5067203;28;20032;-80
2022/09/23 00:23:01;;;;;;;8.75;4.70;;;16.50;55.30;;;;;;5054531;28;20475;-77
2022/09/23 00:25:28;;;;;;;9.77;5.82;;;16.60;54.60;;;;;;5067132;28;20060;-77
2022/09/23 00:27:55;;;;;;;7.50;5.07;;;16.60;54.50;;;;;;5051156;28;20025;-81
2022/09/23 00:30:22;;;;;;;12.95;5.82;;;16.50;54.60;;;;;;5054968;28;20035;-81
2022/09/23 00:32:48;;;;;;;8.02;5.07;;;16.60;54.70;;;;;;5054714;28;20555;-79
2022/09/23 00:35:14;;;;;;;10.52;5.35;;;16.60;54.50;;;;;;5072863;28;20103;-81
2022/09/23 00:37:39;;;;;;;8.77;5.00;;;16.60;54.40;;;;;;5072976;28;20370;-80
2022/09/23 00:40:06;;;;;;;10.50;5.10;;;16.60;54.40;;;;;;5054648;28;20028;-77
2022/09/23 00:42:32;;;;;;;9.02;5.43;;;16.40;54.40;;;;;;5055014;28;20028;-80
2022/09/23 00:44:59;;;;;;;8.40;5.00;;;16.40;54.70;;;;;;5054947;28;20035;-80
2022/09/23 00:47:29;;;;;;;9.18;5.32;;;16.40;54.80;;;;;;5073035;28;20059;-79
2022/09/23 00:50:16;;;;;;;7.60;4.85;;;16.40;54.90;;;;;;5072616;28;20024;-77
2022/09/23 00:52:42;;;;;;;9.18;5.47;;;16.40;55.10;;;;;;5054593;28;20078;-80
2022/09/23 00:55:13;;;;;;;7.32;5.05;;;16.20;56.10;;;;;;5054519;28;20017;-80
2022/09/23 00:57:40;;;;;;;7.15;4.85;;;16.20;55.80;;;;;;5072573;28;20033;-79
2022/09/23 01:00:07;;;;;;;8.73;5.13;;;16.30;55.10;;;;;;5054348;28;20372;-79
2022/09/23 01:02:33;;;;;;;7.75;4.80;;;16.10;54.70;;;;;;5054433;28;20104;-78
2022/09/23 01:05:02;;;;;;;8.13;5.20;;;16.10;55.10;;;;;;5072328;28;20448;-76
2022/09/23 01:07:28;;;;;;;9.20;5.20;;;15.90;56.10;;;;;;5044307;28;20036;-76
2022/09/23 01:09:55;;;;;;;8.95;5.43;;;16.00;56.60;;;;;;5073320;28;20025;-81
2022/09/23 01:12:39;;;;;;;7.82;5.07;;;16.00;55.30;;;;;;5044743;28;20025;-77
2022/09/23 01:15:14;;;;;;;10.70;5.80;;;16.00;55.10;;;;;;5071885;28;20035;-80
2022/09/23 01:17:56;;;;;;;9.20;5.13;;;15.90;55.70;;;;;;5061923;28;20025;-79
2022/09/23 01:20:54;;;;;;;7.82;4.97;;;16.00;55.20;;;;;;5075105;28;20028;-80
2022/09/23 01:24:27;;;;;;;9.13;5.05;;;15.70;56.10;;;;;;5062337;28;20028;-79
2022/09/23 01:27:20;;;;;;;7.45;5.05;;;15.60;55.90;;;;;;4933940;29;20119;-79
2022/09/23 01:30:04;;;;;;;9.18;5.13;;;15.60;55.50;;;;;;4923587;29;20373;-77
2022/09/23 01:32:41;;;;;;;8.50;5.10;;;15.60;55.50;;;;;;4917875;29;20043;-77
2022/09/23 01:35:06;;;;;;;11.85;5.20;;;15.70;55.80;;;;;;4933142;29;20028;-78
2022/09/23 01:37:53;;;;;;;8.18;5.10;;;15.70;56.10;;;;;;4935628;29;20051;-79
2022/09/23 01:40:54;;;;;;;7.38;4.72;;;15.20;57.50;;;;;;4935812;29;20036;-78
2022/09/23 01:43:32;;;;;;;7.10;4.82;;;15.30;57.40;;;;;;4878693;29;20241;-81
2022/09/23 01:46:01;;;;;;;8.60;4.60;;;15.70;56.00;;;;;;4874095;29;20061;-78
2022/09/23 01:48:39;;;;;;;9.13;4.82;;;15.70;56.10;;;;;;4872825;29;20511;-78
2022/09/23 01:51:12;;;;;;;9.13;5.40;;;15.80;55.60;;;;;;4863204;29;20036;-80
2022/09/23 01:54:05;;;;;;;8.82;4.63;;;15.70;56.50;;;;;;4879031;29;20037;-79
2022/09/23 01:56:39;;;;;;;8.43;5.07;;;15.80;55.90;;;;;;4859062;29;20181;-78
2022/09/23 01:59:17;;;;;;;7.68;5.40;;;15.80;54.80;;;;;;4858800;29;20045;-80
2022/09/23 02:02:02;;;;;;;8.38;5.00;;;15.60;55.00;;;;;;4871865;29;20063;-81
2022/09/23 02:04:44;;;;;;;8.20;5.10;;;15.70;55.00;;;;;;4921168;29;20091;-82
2022/09/23 02:07:20;;;;;;;8.77;5.00;;;15.70;55.00;;;;;;4925692;29;20051;-80
2022/09/23 02:09:58;;;;;;;9.10;5.28;;;15.70;55.30;;;;;;4922066;29;20137;-79
2022/09/23 02:12:28;;;;;;;8.13;5.03;;;15.50;56.20;;;;;;4934467;28;20031;-78
2022/09/23 02:15:08;;;;;;;8.57;4.80;;;15.60;56.60;;;;;;4934681;29;20035;-82
2022/09/23 02:17:54;;;;;;;7.68;4.80;;;15.80;55.40;;;;;;4932164;29;20609;-76
2022/09/23 02:20:29;;;;;;;8.85;5.13;;;15.90;55.10;;;;;;4960899;28;20105;-81
2022/09/23 02:23:18;;;;;;;8.65;5.57;;;16.00;55.10;;;;;;4975192;28;20413;-77
2022/09/23 02:25:46;;;;;;;7.43;4.80;;;16.00;55.00;;;;;;4977110;28;20482;-82
2022/09/23 02:28:17;;;;;;;7.53;4.70;;;16.00;55.30;;;;;;4975455;28;20390;-77
2022/09/23 02:30:55;;;;;;;7.45;4.53;;;16.00;55.70;;;;;;4976135;28;20065;-81
2022/09/23 02:33:32;;;;;;;8.23;5.50;;;15.70;56.50;;;;;;5008478;28;20036;-80
2022/09/23 02:36:07;;;;;;;7.22;4.75;;;15.60;56.60;;;;;;5039667;28;20033;-82
2022/09/23 02:38:42;;;;;;;8.43;4.60;;;15.60;56.20;;;;;;5051231;28;20025;-82
2022/09/23 02:41:19;;;;;;;7.43;4.78;;;15.50;57.00;;;;;;5065887;28;20024;-80
2022/09/23 02:44:04;;;;;;;7.55;4.68;;;15.60;56.30;;;;;;5036198;28;20417;-82
2022/09/23 02:46:30;;;;;;;8.15;5.25;;;15.80;55.30;;;;;;5064024;28;20040;-80
2022/09/23 02:48:59;;;;;;;7.05;4.60;;;15.80;55.10;;;;;;5071973;28;20032;-79
2022/09/23 02:51:27;;;;;;;8.43;4.65;;;15.70;55.80;;;;;;5072329;28;20021;-80
2022/09/23 02:53:57;;;;;;;8.18;5.03;;;15.40;56.50;;;;;;5073103;28;20054;-80
2022/09/23 02:56:23;;;;;;;8.60;5.63;;;15.40;56.80;;;;;;5053810;28;20484;-80
2022/09/23 02:58:52;;;;;;;7.60;5.25;;;15.60;56.10;;;;;;5055917;28;20025;-80
2022/09/23 03:01:38;;;;;;;7.35;5.20;;;15.70;56.00;;;;;;5071064;28;20078;-80
2022/09/23 03:04:12;;;;;;;9.32;5.18;;;15.20;57.60;;;;;;5055992;28;20081;-79
2022/09/23 03:06:58;;;;;;;7.18;5.07;;;15.30;57.10;;;;;;5055835;28;20563;-79
2022/09/23 03:09:32;;;;;;;7.70;4.80;;;15.10;57.50;;;;;;5055955;28;20107;-78
2022/09/23 03:12:35;;;;;;;7.95;5.07;;;14.70;58.80;;;;;;5073852;28;20103;-81
2022/09/23 03:15:15;;;;;;;7.80;5.30;;;14.70;58.30;;;;;;4969605;28;20126;-79
2022/09/23 03:18:15;;;;;;;8.50;5.47;;;15.20;57.30;;;;;;4953731;29;20537;-83
2022/09/23 03:20:56;;;;;;;7.68;5.18;;;15.50;56.60;;;;;;4954994;28;20049;-82
2022/09/23 03:23:30;;;;;;;10.95;5.47;;;15.70;56.30;;;;;;4972875;28;20031;-78
2022/09/23 03:25:58;;;;;;;11.30;6.22;;;15.70;56.30;;;;;;4972910;28;20522;-85
2022/09/23 03:28:26;;;;;;;7.90;5.50;;;15.80;56.40;;;;;;4972996;28;20019;-82
2022/09/23 03:30:54;;;;;;;10.77;6.30;;;15.80;57.00;;;;;;4969708;28;20031;-81
2022/09/23 03:33:26;;;;;;;8.43;5.53;;;15.90;57.30;;;;;;4972265;28;20033;-81
2022/09/23 03:38:46;;;;;;;10.13;5.70;;;16.00;56.50;;;;;;4972176;28;20037;-81
2022/09/23 03:41:16;;;;;;;8.90;5.35;;;16.00;56.00;;;;;;4972409;28;20171;-80
2022/09/23 03:43:44;;;;;;;9.93;6.22;;;16.00;56.30;;;;;;4955328;28;20035;-81
2022/09/23 03:46:11;;;;;;;10.43;5.75;;;15.90;57.20;;;;;;4971526;28;20037;-81
2022/09/23 03:48:37;;;;;;;11.68;6.95;;;15.80;57.80;;;;;;4954937;28;20039;-80
2022/09/23 03:51:18;;;;;;;9.15;5.93;;;15.80;58.00;;;;;;5024052;28;20055;-82
2022/09/23 03:53:44;;;;;;;9.15;5.97;;;15.80;58.40;;;;;;5054169;28;20103;-79
2022/09/23 03:56:10;;;;;;;9.55;6.18;;;16.00;58.10;;;;;;5072285;28;20139;-85
2022/09/23 03:58:36;;;;;;;9.93;5.88;;;16.00;57.80;;;;;;5072127;28;20099;-79
2022/09/23 04:01:02;;;;;;;13.35;6.90;;;16.00;57.40;;;;;;5070155;28;20024;-82
2022/09/23 04:03:28;;;;;;;9.93;5.97;;;16.00;57.60;;;;;;5054096;28;20494;-80
2022/09/23 04:05:54;;;;;;;9.88;6.20;;;15.90;57.70;;;;;;5054542;28;20029;-79
2022/09/23 04:08:20;;;;;;;9.80;6.38;;;16.00;57.60;;;;;;5055040;28;20033;-81
2022/09/23 04:10:46;;;;;;;9.38;6.35;;;16.00;57.50;;;;;;5069757;28;20550;-81
2022/09/23 04:13:11;;;;;;;12.57;7.38;;;15.90;57.80;;;;;;5065741;28;20017;-80
2022/09/23 04:15:37;;;;;;;11.55;6.93;;;15.90;58.30;;;;;;5056367;28;20087;-80
2022/09/23 04:18:03;;;;;;;11.25;5.95;;;15.90;58.00;;;;;;5054418;28;20116;-80
2022/09/23 04:20:29;;;;;;;9.00;6.10;;;16.00;57.80;;;;;;5069911;28;20024;-79
2022/09/23 04:22:55;;;;;;;11.43;6.28;;;16.00;57.60;;;;;;5067018;28;20020;-80
2022/09/23 04:25:21;;;;;;;9.70;6.32;;;16.00;57.40;;;;;;5072662;28;20031;-80
2022/09/23 04:27:46;;;;;;;11.38;6.05;;;15.90;57.70;;;;;;5053933;28;20115;-78
2022/09/23 04:30:12;;;;;;;9.98;5.97;;;15.80;57.80;;;;;;5060142;28;20100;-82
2022/09/23 04:32:39;;;;;;;7.78;5.47;;;15.80;58.00;;;;;;5050945;28;20463;-81
2022/09/23 04:35:05;;;;;;;11.38;5.95;;;15.80;57.90;;;;;;5054644;28;20128;-80
2022/09/23 04:37:31;;;;;;;10.25;6.22;;;15.90;57.70;;;;;;5072200;28;20039;-83
2022/09/23 04:39:57;;;;;;;9.23;6.07;;;15.90;57.60;;;;;;5072832;28;20025;-81
2022/09/23 04:42:23;;;;;;;10.65;6.07;;;15.90;57.70;;;;;;5055173;28;20032;-82
2022/09/23 04:44:48;;;;;;;10.77;6.72;;;15.90;57.70;;;;;;5074013;28;20055;-82
2022/09/23 04:47:14;;;;;;;10.15;6.07;;;15.80;58.00;;;;;;5058143;28;20036;-79
2022/09/23 04:49:40;;;;;;;10.48;6.88;;;15.70;58.40;;;;;;5076852;28;20029;-81
2022/09/23 04:52:06;;;;;;;12.10;7.10;;;15.70;58.80;;;;;;5058129;28;20099;-80
2022/09/23 04:54:32;;;;;;;11.15;6.93;;;15.60;59.00;;;;;;5058192;28;20045;-83
2022/09/23 04:56:58;;;;;;;14.88;6.78;;;15.60;59.20;;;;;;5057782;28;20076;-78
2022/09/23 04:59:23;;;;;;;10.43;6.82;;;15.60;59.20;;;;;;5074757;28;20476;-82
2022/09/23 05:01:50;;;;;;;11.80;6.60;;;15.60;60.00;;;;;;5058497;28;20406;-88
2022/09/23 05:04:16;;;;;;;12.60;5.82;;;15.70;59.00;;;;;;5058488;28;20060;-83
2022/09/23 05:06:44;;;;;;;10.88;6.07;;;15.70;59.00;;;;;;5058416;28;20059;-83
2022/09/23 05:09:17;;;;;;;12.05;6.18;;;15.70;58.80;;;;;;5074785;28;20028;-83
2022/09/23 05:11:43;;;;;;;9.48;5.88;;;15.70;58.90;;;;;;5057170;28;20047;-82
2022/09/23 05:14:08;;;;;;;10.00;6.70;;;15.80;58.90;;;;;;5056379;28;20162;-79
2022/09/23 05:16:34;;;;;;;10.32;6.85;;;15.70;59.20;;;;;;5074375;28;20070;-80
2022/09/23 05:19:01;;;;;;;12.10;7.22;;;15.60;59.60;;;;;;5090419;28;20024;-79
2022/09/23 05:21:30;;;;;;;9.73;6.40;;;15.50;59.90;;;;;;5056502;28;20479;-83
2022/09/23 05:23:59;;;;;;;13.65;7.28;;;15.50;59.90;;;;;;5057185;28;20475;-81
2022/09/23 05:26:28;;;;;;;10.63;6.60;;;15.50;60.10;;;;;;5057710;28;20032;-80
2022/09/23 05:28:54;;;;;;;10.52;6.63;;;15.60;59.90;;;;;;5074985;28;20490;-83
2022/09/23 05:31:25;;;;;;;11.32;7.35;;;15.70;59.70;;;;;;5074714;28;20029;-81
2022/09/23 05:33:59;;;;;;;12.05;7.00;;;15.50;60.50;;;;;;5058132;28;20544;-81
2022/09/23 05:36:26;;;;;;;12.20;7.63;;;15.50;60.60;;;;;;5057615;28;20044;-80
2022/09/23 05:38:52;;;;;;;16.30;9.07;;;15.70;60.50;;;;;;5057678;28;20158;-81
2022/09/23 05:41:21;;;;;;;11.93;7.93;;;15.60;60.50;;;;;;5057351;28;20422;-82
2022/09/23 05:43:47;;;;;;;13.07;8.15;;;15.60;60.50;;;;;;5075248;28;20004;-85
2022/09/23 05:46:22;;;;;;;11.90;7.70;;;15.80;60.30;;;;;;5074049;28;20025;-83
2022/09/23 05:48:48;;;;;;;12.43;7.35;;;15.80;60.30;;;;;;5056627;28;20375;-80
2022/09/23 05:51:19;;;;;;;12.40;7.72;;;15.90;60.00;;;;;;5056904;28;20029;-79
2022/09/23 05:53:51;;;;;;;11.68;7.28;;;15.80;60.90;;;;;;5073717;28;20037;-79
2022/09/23 05:56:19;;;;;;;11.77;8.00;;;15.90;60.60;;;;;;5055639;28;20502;-80
2022/09/23 05:58:48;;;;;;;12.45;7.70;;;15.90;60.70;;;;;;5073858;28;20109;-81
2022/09/23 06:01:25;;;;;;;11.98;7.90;;;16.00;60.50;;;;;;5073285;28;20028;-78
2022/09/23 06:03:52;;;;;;;10.38;7.30;;;16.20;60.40;;;;;;5054534;28;20054;-82
2022/09/23 06:06:21;;;;;;;12.45;6.80;;;16.30;60.50;;;;;;5057483;28;20021;-80
2022/09/23 06:08:47;;;;;;;11.10;6.68;;;16.20;60.30;;;;;;5074755;28;20414;-84
2022/09/23 06:11:13;;;;;;;10.02;6.65;;;16.30;60.40;;;;;;5074452;28;20028;-77
2022/09/23 06:13:40;;;;;;;10.38;6.40;;;16.50;60.40;;;;;;5057015;28;20036;-77
2022/09/23 06:16:09;;;;;;;9.63;6.55;;;16.60;59.90;;;;;;5074539;28;20036;-82
2022/09/23 06:18:36;;;;;;;10.95;6.90;;;16.80;59.30;;;;;;5056287;28;20055;-77
2022/09/23 06:21:03;;;;;;;9.88;6.70;;;16.80;59.10;;;;;;5074043;28;20060;-77
2022/09/23 06:23:29;;;;;;;9.98;6.80;;;16.90;59.40;;;;;;5074882;28;20068;-78
2022/09/23 06:26:03;;;;;;;10.55;6.13;;;17.10;59.40;;;;;;5036683;28;20116;-78
2022/09/23 06:28:36;;;;;;;9.80;6.95;;;17.20;59.30;;;;;;5036803;28;20115;-78
2022/09/23 06:31:05;;;;;;;10.00;6.65;;;17.40;58.80;;;;;;5054367;28;20472;-82
2022/09/23 06:33:31;;;;;;;10.65;7.18;;;17.60;58.60;;;;;;5067179;28;20479;-81
2022/09/23 06:35:58;;;;;;;12.45;7.07;;;17.80;58.30;;;;;;5073583;28;20068;-78
2022/09/23 06:38:25;;;;;;;9.75;6.50;;;17.90;58.00;;;;;;5073370;28;20566;-78
2022/09/23 06:40:52;;;;;;;11.13;6.65;;;18.00;58.00;;;;;;5055739;28;20035;-77
2022/09/23 06:43:21;;;;;;;13.52;7.15;;;18.20;57.90;;;;;;5055374;28;20032;-78
2022/09/23 06:45:55;;;;;;;9.32;6.38;;;18.30;57.60;;;;;;5055200;28;20078;-77
2022/09/23 06:48:25;;;;;;;11.35;7.00;;;18.40;57.20;;;;;;5068591;28;20052;-79
2022/09/23 06:50:52;;;;;;;;;;;18.50;57.50;;;;;;5056021;28;20479;-78
2022/09/23 06:53:21;;;;;;;10.82;7.20;;;18.70;57.30;;;;;;5073472;28;19904;-80
2022/09/23 06:55:47;;;;;;;11.70;7.13;;;18.70;57.20;;;;;;5055591;28;20032;-84
2022/09/23 06:58:14;;;;;;;11.13;7.35;;;18.80;57.10;;;;;;5055749;28;20041;-80
2022/09/23 07:00:39;;;;;;;11.50;7.18;;;18.80;57.10;;;;;;5073351;28;20028;-78
2022/09/23 07:03:08;;;;;;;12.55;7.60;;;18.80;57.10;;;;;;5055657;28;20020;-76
2022/09/23 07:05:35;;;;;;;9.13;6.55;;;18.90;57.10;;;;;;5055696;28;20105;-77
2022/09/23 07:08:00;;;;;;;10.88;6.85;;;18.90;57.00;;;;;;5072621;28;20028;-77
2022/09/23 07:10:29;;;;;;;8.75;5.97;;;18.80;57.50;;;;;;5055270;28;20383;-79
2022/09/23 07:12:55;;;;;;;9.25;6.63;;;18.70;57.50;;;;;;5055724;28;20020;-79
2022/09/23 07:15:21;;;;;;;8.50;5.60;;;18.80;57.20;;;;;;5055379;28;20032;-81
2022/09/23 07:17:46;;;;;;;9.00;5.70;;;18.90;57.40;;;;;;5073521;28;20033;-81
2022/09/23 07:20:12;;;;;;;7.75;4.97;;;19.10;57.10;;;;;;5055534;28;20407;-78
2022/09/23 07:22:38;;;;;;;7.55;4.93;;;19.00;57.00;;;;;;5073358;28;20493;-79
2022/09/23 07:25:05;;;;;;;8.73;5.40;;;19.10;56.60;;;;;;5073146;28;20379;-78
2022/09/23 07:27:32;;;;;;;9.75;4.47;;;19.40;56.70;;;;;;5051322;28;20043;-79
2022/09/23 07:29:57;;;;;;;8.65;5.40;;;19.70;55.60;;;;;;5055164;28;20024;-80
2022/09/23 07:32:24;;;;;;;7.38;4.90;;;19.90;55.70;;;;;;5073433;28;20025;-83
2022/09/23 07:34:50;;;;;;;6.53;4.50;;;19.70;55.80;;;;;;5055415;28;20082;-78
2022/09/23 07:37:17;;;;;;;6.95;4.43;;;19.70;54.40;;;;;;5055007;28;20070;-77
2022/09/23 07:39:43;;;;;;;6.65;4.45;;;20.00;54.70;;;;;;5055495;28;20032;-83
2022/09/23 07:42:12;;;;;;;6.30;4.00;;;20.40;53.70;;;;;;5053161;28;20161;-78
2022/09/23 07:44:38;;;;;;;5.55;3.80;;;20.20;52.20;;;;;;5055083;28;20016;-79
2022/09/23 07:47:04;;;;;;;4.72;3.60;;;20.10;51.50;;;;;;5054909;28;20177;-79
2022/09/23 07:49:29;;;;;;;6.00;3.95;;;20.10;53.10;;;;;;5054698;28;20309;-86
2022/09/23 07:51:55;;;;;;;5.40;3.65;;;20.00;52.70;;;;;;5054945;28;20032;-78
2022/09/23 07:54:24;;;;;;;6.50;4.07;;;20.50;53.00;;;;;;5072993;28;20062;-77
2022/09/23 07:56:49;;;;;;;7.05;3.58;;;21.00;51.70;;;;;;5055712;28;20402;-83
2022/09/23 07:59:20;;;;;;;6.32;3.92;;;21.30;51.80;;;;;;5073165;28;20459;-86
2022/09/23 08:01:51;;;;;;;6.78;4.30;;;21.20;51.00;;;;;;5054886;28;20029;-82
2022/09/23 08:04:27;;;;;;;5.63;3.80;;;21.10;51.40;;;;;;5054420;28;20035;-78
2022/09/23 08:06:59;;;;;;;9.60;4.25;;;21.40;52.10;;;;;;5055287;28;20471;-80
2022/09/23 08:09:27;;;;;;;5.70;3.72;;;21.40;51.60;;;;;;5073023;28;20035;-85
2022/09/23 08:11:53;;;;;;;5.43;3.60;;;21.50;51.30;;;;;;5054759;28;20024;-83
2022/09/23 08:14:21;;;;;;;5.88;3.85;;;21.30;51.00;;;;;;5072850;28;20426;-78
2022/09/23 08:16:47;;;;;;;4.93;3.58;;;21.40;51.70;;;;;;5071728;28;20091;-77
2022/09/23 08:19:13;;;;;;;5.53;3.83;;;21.30;51.70;;;;;;5054983;28;20030;-83
2022/09/23 08:21:40;;;;;;;6.85;3.53;;;21.20;52.30;;;;;;5050379;28;20057;-91
2022/09/23 08:24:13;;;;;;;5.38;3.72;;;21.30;51.90;;;;;;5045994;28;20386;-81
2022/09/23 08:26:39;;;;;;;5.32;3.72;;;21.60;51.60;;;;;;5055333;28;20040;-83
2022/09/23 08:29:05;;;;;;;8.88;4.00;;;21.70;50.70;;;;;;5056378;28;20021;-83
2022/09/23 08:31:31;;;;;;;5.50;3.72;;;21.40;51.20;;;;;;5038829;28;20021;-79
2022/09/23 08:33:57;;;;;;;5.05;3.50;;;21.20;51.60;;;;;;5038656;28;20075;-80
2022/09/23 08:36:24;;;;;;;4.95;3.30;;;21.50;50.50;;;;;;5038157;28;20025;-85
2022/09/23 08:38:51;;;;;;;5.20;3.50;;;21.20;51.80;;;;;;5038481;28;20094;-80
2022/09/23 08:41:25;;;;;;;5.18;3.60;;;21.60;52.40;;;;;;5038655;28;20021;-80
2022/09/23 08:44:00;;;;;;;5.68;3.67;;;21.70;51.40;;;;;;5056096;28;20020;-78
2022/09/23 08:46:32;;;;;;;5.03;3.30;;;21.90;51.10;;;;;;5056382;28;20545;-79
2022/09/23 08:48:59;;;;;;;4.85;3.30;;;22.20;51.50;;;;;;5037966;28;20394;-78
2022/09/23 08:51:34;;;;;;;5.28;3.45;;;22.10;50.60;;;;;;5038108;28;20021;-84
2022/09/23 08:54:00;;;;;;;6.55;3.75;;;22.40;51.80;;;;;;5056400;28;20039;-83
2022/09/23 08:56:28;;;;;;;6.20;3.42;;;22.70;50.40;;;;;;5055755;28;20036;-84
2022/09/23 08:59:16;;;;;;;6.32;3.47;;;22.70;50.00;;;;;;5038223;28;20472;-85
2022/09/23 09:01:50;;;;;;;6.20;3.63;;;22.40;50.60;;;;;;5055647;28;20025;-87
2022/09/23 09:04:19;;;;;;;7.22;3.40;;;22.20;50.80;;;;;;5037955;28;20025;-79
2022/09/23 09:06:51;;;;;;;4.60;3.25;;;22.20;51.00;;;;;;5055742;28;20104;-81
2022/09/23 09:09:38;;;;;;;5.38;3.53;;;22.40;50.70;;;;;;5055856;28;20395;-79
2022/09/23 09:12:17;;;;;;;4.32;3.25;;;22.80;49.20;;;;;;5037863;28;20033;-83
2022/09/23 09:15:03;;;;;;;4.43;2.92;;;22.80;50.20;;;;;;5056007;28;20071;-82
2022/09/23 09:17:45;;;;;;;6.13;3.63;;;22.50;49.50;;;;;;5055326;28;20035;-79
2022/09/23 09:20:17;;;;;;;5.28;3.53;;;22.50;50.60;;;;;;5055759;28;20017;-78
2022/09/23 09:22:58;;;;;;;5.55;3.40;;;22.50;49.70;;;;;;5037509;28;20542;-79
2022/09/23 09:25:54;;;;;;;5.28;3.35;;;22.40;50.60;;;;;;5055685;28;20029;-79
2022/09/23 09:28:26;;;;;;;5.28;3.67;;;22.70;50.50;;;;;;5037557;28;20506;-80
2022/09/23 09:31:13;;;;;;;5.88;3.40;;;23.10;50.00;;;;;;5036387;28;20029;-83
2022/09/23 09:33:56;;;;;;;10.95;3.35;;;23.60;49.30;;;;;;5037575;28;20062;-89
2022/09/23 09:36:29;;;;;;;6.72;3.25;;;23.90;49.30;;;;;;5055069;28;20029;-86
2022/09/23 09:38:57;;;;;;;7.20;3.78;;;24.20;49.50;;;;;;5037463;28;20025;-79
2022/09/23 09:41:27;;;;;;;5.10;3.35;;;24.00;49.30;;;;;;5038060;28;20070;-89
2022/09/23 09:43:59;;;;;;;7.50;3.58;;;24.20;48.80;;;;;;5037527;28;20054;-80
2022/09/23 09:46:37;;;;;;;5.93;3.70;;;23.50;49.20;;;;;;5037418;28;20056;-87
2022/09/23 09:49:13;;;;;;;4.72;3.50;;;23.00;48.80;;;;;;5036924;28;20032;-82
2022/09/23 09:51:40;;;;;;;7.80;3.38;;;22.40;50.10;;;;;;5053790;28;20088;-84
2022/09/23 09:54:35;;;;;;;5.30;3.45;;;22.40;50.10;;;;;;5037402;28;20491;-79
2022/09/23 09:57:04;;;;;;;5.22;3.35;;;23.10;49.70;;;;;;5028500;28;20041;-78
2022/09/23 09:59:31;;;;;;;6.75;3.20;;;23.40;49.20;;;;;;5037258;28;20060;-85
2022/09/23 10:02:34;;;;;;;5.00;3.40;;;23.50;49.10;;;;;;5055106;28;20056;-79
2022/09/23 10:05:05;;;;;;;7.32;3.63;;;23.30;48.70;;;;;;5054533;28;20056;-79
2022/09/23 10:07:33;;;;;;;5.70;3.35;;;23.20;49.00;;;;;;5036924;28;20032;-86
2022/09/23 10:10:21;;;;;;;4.60;3.22;;;23.00;49.50;;;;;;5036415;28;20033;-78
2022/09/23 10:12:48;;;;;;;5.10;3.70;;;23.40;49.70;;;;;;5036964;28;20036;-79
2022/09/23 10:15:42;;;;;;;4.20;3.13;;;23.50;48.90;;;;;;5036778;28;20028;-79
2022/09/23 10:18:18;;;;;;;6.50;3.42;;;23.60;49.20;;;;;;5054453;28;20529;-79
2022/09/23 10:20:45;;;;;;;4.70;3.28;;;23.50;49.20;;;;;;5055016;28;20025;-79
2022/09/23 10:23:26;;;;;;;12.98;3.85;;;23.80;50.30;;;;;;5036205;28;20507;-78
2022/09/23 10:25:59;;;;;;;5.70;3.58;;;23.90;49.20;;;;;;5036239;28;20055;-79
2022/09/23 10:28:51;;;;;;;5.93;2.90;;;24.20;49.50;;;;;;5053179;28;20103;-79
2022/09/23 10:31:25;;;;;;;6.40;3.50;;;24.50;48.60;;;;;;5054275;28;20144;-80
2022/09/23 10:34:00;;;;;;;4.80;3.08;;;24.60;48.70;;;;;;5054148;28;20359;-79
2022/09/23 10:36:28;;;;;;;6.05;3.22;;;24.70;48.90;;;;;;5054036;28;20021;-79
2022/09/23 10:48:20;;;;;;;5.85;3.13;;;24.50;49.10;;;;;;5053449;28;20059;-85
2022/09/23 10:50:51;;;;;;;7.95;3.55;;;24.60;48.30;;;;;;5053881;28;20013;-81
2022/09/23 10:53:22;;;;;;;5.25;3.05;;;24.60;48.10;;;;;;5035712;28;20559;-79
2022/09/23 10:56:09;;;;;;;5.28;3.10;;;24.10;48.00;;;;;;5035749;28;20468;-80
2022/09/23 10:58:53;;;;;;;4.60;3.15;;;24.10;48.30;;;;;;5036020;28;20041;-84
2022/09/23 11:01:38;;;;;;;4.43;2.97;;;23.70;48.80;;;;;;5029881;28;20110;-80
2022/09/23 11:04:23;;;;;;;6.47;3.25;;;23.90;49.50;;;;;;5035995;28;20029;-83
2022/09/23 11:07:06;;;;;;;5.78;2.90;;;23.90;47.60;;;;;;5035821;28;20443;-81
2022/09/23 11:09:41;;;;;;;5.10;2.97;;;23.60;48.10;;;;;;5053595;28;20066;-81
2022/09/23 11:12:31;;;;;;;5.97;2.80;;;23.40;48.20;;;;;;5035743;28;20024;-79
2022/09/23 11:15:31;;;;;;;6.90;3.50;;;23.40;48.40;;;;;;5053909;28;20017;-79
2022/09/23 11:18:13;;;;;;;4.72;3.00;;;23.60;49.00;;;;;;5052926;28;20040;-78
2022/09/23 11:20:38;;;;;;;5.68;3.20;;;23.90;49.10;;;;;;5035158;28;20035;-79
2022/09/23 11:23:35;;;;;;;4.88;3.22;;;24.10;47.60;;;;;;5052995;28;20029;-80
2022/09/23 11:26:14;;;;;;;5.88;3.28;;;24.10;48.00;;;;;;5035033;28;20102;-77
2022/09/23 11:29:07;;;;;;;5.88;3.10;;;24.40;48.20;;;;;;5035231;28;20047;-80
2022/09/23 11:31:42;;;;;;;7.10;3.20;;;24.70;47.30;;;;;;5053067;28;20028;-80
2022/09/23 11:34:08;;;;;;;7.80;3.38;;;24.90;47.20;;;;;;5052625;28;20427;-79
2022/09/23 11:36:55;;;;;;;4.55;3.30;;;25.00;47.20;;;;;;5035516;28;20025;-86
2022/09/23 11:39:38;;;;;;;5.00;3.10;;;25.10;47.40;;;;;;5052932;28;20025;-81
2022/09/23 11:42:11;;;;;;;5.22;3.17;;;25.00;46.50;;;;;;5053039;28;20035;-82
2022/09/23 11:44:48;;;;;;;4.65;3.20;;;25.00;46.80;;;;;;5052979;28;20026;-79
2022/09/23 11:47:25;;;;;;;4.35;2.85;;;25.00;46.30;;;;;;5052398;28;20041;-84
2022/09/23 11:50:28;;;;;;;5.03;3.10;;;25.00;47.20;;;;;;5052896;28;20147;-79
2022/09/23 11:53:20;;;;;;;5.95;3.10;;;23.90;47.20;;;;;;5052635;28;20083;-89
2022/09/23 11:56:02;;;;;;;5.05;3.15;;;23.10;48.20;;;;;;5050209;28;20037;-85
2022/09/23 11:58:49;;;;;;;7.82;2.97;;;23.00;49.10;;;;;;5034783;28;20043;-80
2022/09/23 12:01:39;;;;;;;7.32;3.47;;;23.00;49.30;;;;;;5053094;28;20061;-79
2022/09/23 12:04:14;;;;;;;9.00;4.43;;;23.20;49.70;;;;;;5035002;28;20021;-86
2022/09/23 12:06:44;;;;;;;4.82;3.28;;;23.10;48.70;;;;;;5035078;28;20029;-92
2022/09/23 12:09:26;;;;;;;4.70;3.00;;;22.80;49.70;;;;;;5035163;28;20060;-79
2022/09/23 12:12:11;;;;;;;4.65;2.97;;;23.10;49.70;;;;;;5034770;28;20128;-78
2022/09/23 12:14:56;;;;;;;5.05;3.00;;;23.50;48.70;;;;;;5052430;28;20017;-79
2022/09/23 12:17:47;;;;;;;8.98;5.68;;;23.80;47.80;;;;;;5052047;28;20052;-78
2022/09/23 12:20:28;;;;;;;5.70;4.05;;;23.40;48.70;;;;;;5051916;28;20105;-78
2022/09/23 12:23:21;;;;;;;4.93;3.40;;;23.30;48.90;;;;;;5052562;28;20059;-78
2022/09/23 12:26:00;;;;;;;6.30;3.25;;;23.70;48.50;;;;;;5034819;28;20472;-87
2022/09/23 12:28:49;;;;;;;4.57;3.00;;;23.80;48.60;;;;;;5035059;28;20030;-91
2022/09/23 12:31:17;;;;;;;4.80;3.03;;;23.90;47.90;;;;;;5052832;28;20214;-77
2022/09/23 12:33:53;;;;;;;5.05;3.30;;;24.40;47.70;;;;;;5052441;28;20021;-84
2022/09/23 12:36:34;;;;;;;6.00;3.13;;;24.50;47.00;;;;;;5052435;28;20032;-82
2022/09/23 12:39:06;;;;;;;;;;;24.70;47.60;;;;;;5053419;28;20025;-84
2022/09/23 12:41:37;;;;;;;4.90;3.10;;;24.90;46.50;;;;;;5034835;28;19911;-83
2022/09/23 12:44:11;;;;;;;5.35;3.10;;;24.80;46.30;;;;;;5052610;28;20028;-78
2022/09/23 12:46:37;;;;;;;6.03;3.25;;;24.80;45.30;;;;;;5051973;28;20041;-78
2022/09/23 12:49:06;;;;;;;5.70;3.60;;;24.60;45.70;;;;;;5051776;28;20055;-78
2022/09/23 12:51:35;;;;;;;4.13;2.80;;;24.30;45.90;;;;;;5052224;28;20020;-79
2022/09/23 12:54:04;;;;;;;4.22;3.00;;;24.40;47.10;;;;;;5052793;28;20427;-79
2022/09/23 12:56:36;;;;;;;5.43;3.35;;;24.00;47.00;;;;;;5051973;28;20048;-81
2022/09/23 12:59:25;;;;;;;8.68;4.10;;;23.60;47.30;;;;;;5052290;28;20033;-79
2022/09/23 13:01:52;;;;;;;6.32;3.47;;;23.70;46.90;;;;;;5034602;28;20035;-79
2022/09/23 13:07:30;;;;;;;7.18;3.63;;;23.90;47.70;;;;;;5056206;28;20071;-84
2022/09/23 13:10:07;;;;;;;7.05;3.03;;;24.00;46.40;;;;;;5037849;28;20025;-82
2022/09/23 13:12:38;;;;;;;8.07;3.00;;;23.20;46.80;;;;;;5056031;28;20027;-79
2022/09/23 13:15:12;;;;;;;4.18;2.78;;;23.20;47.50;;;;;;5055594;28;20455;-80
2022/09/23 13:17:39;;;;;;;5.18;3.35;;;23.80;46.80;;;;;;5038002;28;20048;-85
2022/09/23 13:20:31;;;;;;;7.35;3.05;;;24.40;46.70;;;;;;5038010;28;20407;-78
2022/09/23 13:23:03;;;;;;;4.43;2.90;;;24.00;46.70;;;;;;5037764;28;20036;-78
2022/09/23 13:25:32;;;;;;;5.32;2.83;;;24.40;46.60;;;;;;5037761;28;20032;-81
2022/09/23 13:28:01;;;;;;;4.65;2.63;;;24.60;46.00;;;;;;5055217;28;20025;-77
2022/09/23 13:30:26;;;;;;;4.68;3.10;;;24.00;44.90;;;;;;5055556;28;20032;-78